Time;durP1;ratioP1;P1;durP2;ratioP2;P2;SDS_P1;SDS_P2;PMS_P1;PMS_P2;Temp;Humidity;BMP_temperature;BMP_pressure;BME280_temperature;BME280_humidity;BME280_pressure;Samples;Min_cycle;Max_cycle;Signal;HPM_P1;HPM_P2
2022/08/01 00:01:20;;;;;;;1.55;0.88;;;24.10;95.80;;;;;;5031341;28;20270;-24
2022/08/01 00:03:47;;;;;;;2.13;1.00;;;24.10;95.70;;;;;;5029235;28;20331;-25
2022/08/01 00:06:15;;;;;;;1.48;1.00;;;24.10;95.70;;;;;;5015549;28;20249;-24
2022/08/01 00:08:42;;;;;;;1.85;1.00;;;24.00;95.90;;;;;;5019168;28;20316;-24
2022/08/01 00:11:09;;;;;;;2.33;1.23;;;24.00;95.70;;;;;;5015983;28;20201;-25
2022/08/01 00:13:36;;;;;;;1.17;1.00;;;24.00;95.80;;;;;;5011662;28;20214;-25
2022/08/01 00:16:04;;;;;;;1.85;1.10;;;24.00;95.70;;;;;;5026832;28;20197;-34
2022/08/01 00:18:31;;;;;;;1.35;0.90;;;24.00;95.70;;;;;;5025862;28;20200;-33
2022/08/01 00:21:00;;;;;;;2.40;1.40;;;24.00;95.70;;;;;;5030831;28;20205;-33
2022/08/01 00:23:28;;;;;;;2.65;1.45;;;24.00;95.80;;;;;;5014695;28;20728;-33
2022/08/01 00:25:55;;;;;;;2.08;1.25;;;24.00;95.80;;;;;;5022711;28;20198;-34
2022/08/01 00:28:25;;;;;;;2.67;1.63;;;24.00;96.00;;;;;;5029907;28;20201;-24
2022/08/01 00:30:55;;;;;;;2.90;1.60;;;24.00;96.00;;;;;;5011290;28;20332;-24
2022/08/01 00:33:25;;;;;;;2.78;1.92;;;24.00;95.90;;;;;;5024874;28;20197;-25
2022/08/01 00:35:55;;;;;;;5.13;2.33;;;24.00;96.00;;;;;;5025627;28;20209;-24
2022/08/01 00:38:25;;;;;;;5.95;1.80;;;23.90;95.90;;;;;;5037588;28;20263;-25
2022/08/01 00:40:55;;;;;;;2.20;2.00;;;23.90;96.00;;;;;;5020547;28;20284;-25
2022/08/01 00:43:24;;;;;;;3.42;2.03;;;23.90;96.10;;;;;;5029721;28;20201;-25
2022/08/01 00:45:56;;;;;;;4.20;2.00;;;23.90;96.00;;;;;;5030497;28;20193;-25
2022/08/01 00:48:23;;;;;;;3.70;2.33;;;23.90;96.00;;;;;;5011980;28;20633;-24
2022/08/01 00:50:51;;;;;;;3.45;2.20;;;23.90;96.10;;;;;;5021323;28;20656;-24
2022/08/01 00:53:18;;;;;;;3.15;2.40;;;23.90;96.10;;;;;;5021640;28;20193;-25
2022/08/01 00:55:49;;;;;;;3.30;2.10;;;23.90;96.10;;;;;;5010655;28;20887;-25
2022/08/01 00:58:19;;;;;;;3.88;2.80;;;23.90;96.00;;;;;;5024320;28;20324;-25
2022/08/01 01:00:50;;;;;;;3.38;1.90;;;23.90;96.10;;;;;;5028949;28;20205;-33
2022/08/01 01:03:25;;;;;;;3.63;2.05;;;23.90;96.10;;;;;;5028540;28;20212;-34
2022/08/01 01:06:40;;;;;;;3.45;2.22;;;23.90;96.10;;;;;;5014505;28;20304;-33
2022/08/01 01:09:25;;;;;;;5.55;2.10;;;23.90;96.30;;;;;;5016023;28;20297;-24
2022/08/01 01:12:05;;;;;;;5.10;2.00;;;23.80;96.20;;;;;;5011198;28;20284;-25
2022/08/01 01:14:48;;;;;;;4.20;2.28;;;23.80;96.20;;;;;;5007710;28;20225;-25
2022/08/01 01:17:20;;;;;;;1.70;1.60;;;23.80;96.20;;;;;;5019978;28;20706;-28
2022/08/01 01:20:13;;;;;;;3.22;2.03;;;23.80;96.40;;;;;;5015661;28;20212;-34
2022/08/01 01:23:07;;;;;;;3.65;2.17;;;23.80;96.20;;;;;;5028113;28;20224;-33
2022/08/01 01:25:37;;;;;;;3.45;2.22;;;23.80;96.50;;;;;;5021184;28;20600;-36
2022/08/01 01:28:04;;;;;;;3.38;2.45;;;23.70;96.30;;;;;;5014080;28;20291;-34
2022/08/01 01:30:37;;;;;;;3.80;2.20;;;23.70;96.20;;;;;;5020301;28;20220;-34
2022/08/01 01:33:09;;;;;;;4.13;2.15;;;23.70;96.40;;;;;;5014341;28;20743;-34
2022/08/01 01:35:47;;;;;;;4.53;2.40;;;23.70;96.30;;;;;;5013894;28;20211;-33
2022/08/01 01:38:23;;;;;;;4.53;2.70;;;23.70;96.40;;;;;;5042507;28;20667;-34
2022/08/01 01:40:53;;;;;;;3.85;2.40;;;23.70;96.40;;;;;;5035308;28;20220;-24
2022/08/01 01:43:24;;;;;;;7.68;2.72;;;23.70;96.40;;;;;;5024216;28;20209;-24
2022/08/01 01:46:04;;;;;;;4.32;3.08;;;23.70;96.50;;;;;;5009915;28;20220;-25
2022/08/01 01:48:33;;;;;;;3.75;2.88;;;23.60;96.40;;;;;;5018846;28;20236;-25
2022/08/01 01:51:01;;;;;;;4.35;3.17;;;23.60;96.40;;;;;;5015619;28;20210;-32
2022/08/01 01:53:31;;;;;;;3.63;2.85;;;23.60;96.50;;;;;;5024560;28;20209;-33
2022/08/01 01:56:02;;;;;;;4.13;2.60;;;23.60;96.50;;;;;;5029540;28;20622;-33
2022/08/01 01:58:35;;;;;;;2.85;2.30;;;23.60;96.50;;;;;;5023680;28;20249;-33
2022/08/01 02:01:03;;;;;;;6.30;2.83;;;23.60;96.90;;;;;;5008310;28;20233;-33
2022/08/01 02:03:36;;;;;;;4.32;2.63;;;23.60;96.60;;;;;;5020597;28;20268;-33
2022/08/01 02:06:06;;;;;;;4.20;2.47;;;23.60;96.60;;;;;;5027506;28;20721;-33
2022/08/01 02:08:37;;;;;;;4.20;2.80;;;23.60;96.60;;;;;;5029158;28;20614;-33
2022/08/01 02:11:18;;;;;;;3.85;2.08;;;23.60;96.60;;;;;;5029402;28;20217;-33
2022/08/01 02:14:13;;;;;;;3.28;2.70;;;23.60;96.70;;;;;;5012228;28;20308;-33
2022/08/01 02:16:43;;;;;;;4.80;2.83;;;23.60;96.90;;;;;;5042954;28;20229;-33
2022/08/01 02:19:11;;;;;;;3.80;2.80;;;23.60;96.70;;;;;;5038380;28;20209;-33
2022/08/01 02:21:53;;;;;;;5.00;2.58;;;23.60;96.80;;;;;;5017660;28;20280;-33
2022/08/01 02:24:37;;;;;;;5.00;2.72;;;23.60;96.70;;;;;;5027411;28;20637;-33
2022/08/01 02:27:14;;;;;;;3.90;2.90;;;23.60;96.80;;;;;;5019344;28;20740;-33
2022/08/01 02:29:49;;;;;;;4.63;2.53;;;23.60;96.80;;;;;;5016799;28;20540;-32
2022/08/01 02:32:24;;;;;;;6.18;3.15;;;23.60;96.80;;;;;;5013050;28;20586;-32
2022/08/01 02:34:57;;;;;;;6.30;3.58;;;23.60;96.80;;;;;;5009142;28;20197;-33
2022/08/01 02:37:26;;;;;;;4.13;3.10;;;23.60;96.80;;;;;;5022150;28;20684;-33
2022/08/01 02:39:56;;;;;;;4.50;3.45;;;23.60;96.90;;;;;;5027656;28;20316;-33
2022/08/01 02:42:29;;;;;;;3.60;2.90;;;23.60;96.80;;;;;;5027966;28;20304;-33
2022/08/01 02:45:01;;;;;;;5.57;3.60;;;23.60;96.80;;;;;;5025423;28;20687;-34
2022/08/01 02:47:32;;;;;;;6.57;4.25;;;23.60;96.90;;;;;;5017959;28;20251;-33
2022/08/01 02:50:01;;;;;;;5.65;3.80;;;23.60;96.90;;;;;;5008494;28;20254;-33
2022/08/01 02:52:31;;;;;;;4.68;4.15;;;23.60;97.20;;;;;;5017697;28;20227;-34
2022/08/01 02:54:59;;;;;;;6.15;4.15;;;23.60;97.00;;;;;;5022901;28;20252;-34
2022/08/01 02:57:28;;;;;;;6.55;4.60;;;23.60;97.00;;;;;;5019750;28;20223;-33
2022/08/01 03:00:18;;;;;;;7.57;5.03;;;23.60;97.00;;;;;;5026428;28;20622;-33
2022/08/01 03:02:50;;;;;;;8.52;5.18;;;23.60;97.10;;;;;;5027949;28;20283;-33
2022/08/01 03:05:20;;;;;;;7.13;5.40;;;23.50;97.10;;;;;;5025922;28;20239;-32
2022/08/01 03:07:48;;;;;;;6.38;5.13;;;23.50;97.10;;;;;;5026765;28;20723;-33
2022/08/01 03:10:17;;;;;;;8.23;5.88;;;23.50;97.10;;;;;;5012544;28;20296;-33
2022/08/01 03:12:49;;;;;;;8.18;5.93;;;23.50;97.20;;;;;;5019109;28;20275;-33
2022/08/01 03:15:21;;;;;;;8.75;5.03;;;23.50;97.20;;;;;;5028342;28;20224;-33
2022/08/01 03:17:52;;;;;;;8.20;5.40;;;23.50;97.20;;;;;;5041522;28;20204;-33
2022/08/01 03:20:24;;;;;;;6.45;4.82;;;23.50;97.10;;;;;;5027598;28;20216;-33
2022/08/01 03:22:55;;;;;;;8.32;5.50;;;23.50;97.20;;;;;;5026200;28;20629;-32
2022/08/01 03:25:24;;;;;;;7.30;5.93;;;23.50;97.30;;;;;;5027669;28;20643;-32
2022/08/01 03:27:58;;;;;;;7.47;5.43;;;23.50;97.30;;;;;;5013339;28;20243;-33
2022/08/01 03:30:26;;;;;;;8.73;6.28;;;23.50;97.40;;;;;;5014134;28;20217;-33
2022/08/01 03:32:55;;;;;;;9.93;6.72;;;23.40;97.20;;;;;;5027481;28;20270;-33
2022/08/01 03:35:26;;;;;;;10.55;6.35;;;23.40;97.30;;;;;;5020209;28;20232;-34
2022/08/01 03:37:57;;;;;;;11.73;7.43;;;23.40;97.40;;;;;;5023830;28;20259;-33
2022/08/01 03:40:52;;;;;;;10.13;7.15;;;23.40;97.60;;;;;;5008477;28;20702;-33
2022/08/01 03:43:27;;;;;;;12.82;8.10;;;23.40;97.50;;;;;;5016068;28;20221;-35
2022/08/01 03:46:01;;;;;;;12.60;8.40;;;23.30;97.50;;;;;;5017315;28;20361;-33
2022/08/01 03:48:30;;;;;;;14.32;9.23;;;23.30;97.70;;;;;;5024816;28;20561;-33
2022/08/01 03:50:59;;;;;;;9.27;7.05;;;23.30;97.70;;;;;;5012696;28;20209;-38
2022/08/01 03:53:30;;;;;;;13.45;8.50;;;23.30;97.60;;;;;;5024189;28;20212;-33
2022/08/01 03:56:01;;;;;;;14.48;9.40;;;23.30;97.70;;;;;;5024956;28;20202;-35
2022/08/01 03:58:32;;;;;;;12.77;8.50;;;23.20;97.80;;;;;;5020736;28;20244;-24
2022/08/01 04:01:00;;;;;;;15.88;9.00;;;23.20;97.80;;;;;;5021357;28;20217;-23
2022/08/01 04:03:28;;;;;;;13.70;9.55;;;23.20;97.80;;;;;;5016470;28;20634;-26
2022/08/01 04:05:55;;;;;;;13.30;8.98;;;23.20;97.90;;;;;;5025759;28;20332;-26
2022/08/01 04:08:22;;;;;;;15.15;9.57;;;23.20;98.00;;;;;;5030027;28;20209;-26
2022/08/01 04:10:59;;;;;;;14.43;9.25;;;23.20;98.00;;;;;;5031566;28;20553;-26
2022/08/01 04:13:26;;;;;;;13.82;9.27;;;23.20;98.00;;;;;;5012519;28;20213;-26
2022/08/01 04:16:06;;;;;;;17.77;9.75;;;23.10;98.10;;;;;;5011959;28;20292;-26
2022/08/01 04:18:33;;;;;;;15.40;9.63;;;23.10;98.30;;;;;;5019089;28;20209;-26
2022/08/01 04:21:05;;;;;;;16.42;9.77;;;23.10;98.30;;;;;;5024004;28;20283;-26
2022/08/01 04:23:35;;;;;;;14.85;9.90;;;23.00;98.20;;;;;;5025483;28;20198;-26
2022/08/01 04:26:10;;;;;;;15.77;10.13;;;23.00;98.30;;;;;;5013322;28;20230;-26
2022/08/01 04:28:39;;;;;;;16.45;10.05;;;23.00;98.40;;;;;;5019169;28;20292;-26
2022/08/01 04:31:11;;;;;;;16.70;9.85;;;23.00;98.50;;;;;;5013164;28;20266;-26
2022/08/01 04:33:43;;;;;;;14.90;9.63;;;23.00;98.60;;;;;;5027207;28;20613;-27
2022/08/01 04:36:12;;;;;;;13.75;9.50;;;23.00;98.60;;;;;;5015353;28;20291;-26
2022/08/01 04:38:45;;;;;;;13.95;9.50;;;23.00;98.60;;;;;;5048760;28;20207;-26
2022/08/01 04:41:14;;;;;;;14.20;9.02;;;22.90;98.70;;;;;;5041778;28;20262;-26
2022/08/01 04:43:41;;;;;;;11.40;8.80;;;22.90;98.60;;;;;;5030697;28;20303;-26
2022/08/01 04:46:15;;;;;;;11.20;8.55;;;22.90;98.60;;;;;;5020114;28;20229;-26
2022/08/01 04:48:44;;;;;;;13.57;8.48;;;22.90;98.70;;;;;;5029293;28;20296;-26
2022/08/01 04:51:16;;;;;;;14.10;8.20;;;22.90;98.70;;;;;;5022768;28;20268;-26
2022/08/01 04:53:45;;;;;;;12.40;8.82;;;22.90;98.80;;;;;;5029887;28;20239;-26
2022/08/01 04:56:15;;;;;;;12.30;7.55;;;22.90;98.80;;;;;;5029515;28;20224;-26
2022/08/01 04:58:43;;;;;;;11.55;8.27;;;22.90;98.80;;;;;;5028052;28;20270;-26
2022/08/01 05:01:11;;;;;;;11.63;8.10;;;22.90;98.80;;;;;;5016728;28;20237;-25
2022/08/01 05:03:38;;;;;;;11.32;7.97;;;22.90;98.90;;;;;;5011052;28;20218;-26
2022/08/01 05:06:08;;;;;;;10.55;7.68;;;22.80;98.90;;;;;;5010111;28;20230;-26
2022/08/01 05:08:35;;;;;;;9.63;7.97;;;22.80;99.10;;;;;;5010760;28;20232;-25
2022/08/01 05:11:03;;;;;;;10.13;7.82;;;22.80;99.00;;;;;;5012087;28;20614;-25
2022/08/01 05:13:31;;;;;;;10.85;8.07;;;22.80;99.00;;;;;;5012051;28;20225;-33
2022/08/01 05:15:58;;;;;;;12.27;8.25;;;22.80;99.10;;;;;;5015915;28;20301;-34
2022/08/01 05:18:28;;;;;;;10.18;8.20;;;22.80;99.10;;;;;;5017950;28;20214;-33
2022/08/01 05:20:56;;;;;;;8.80;7.45;;;22.80;99.10;;;;;;5015120;28;20214;-34
2022/08/01 05:23:24;;;;;;;10.40;6.82;;;22.80;99.10;;;;;;5021053;28;20228;-34
2022/08/01 05:26:13;;;;;;;10.45;7.22;;;22.80;99.00;;;;;;5021666;28;20244;-34
2022/08/01 05:28:42;;;;;;;12.02;7.68;;;22.80;99.10;;;;;;5018624;28;20200;-34
2022/08/01 05:31:09;;;;;;;11.75;6.95;;;22.80;99.30;;;;;;5014724;28;20225;-25
2022/08/01 05:33:36;;;;;;;10.27;7.35;;;22.70;99.10;;;;;;5019397;28;20280;-25
2022/08/01 05:36:04;;;;;;;12.90;8.27;;;22.80;99.20;;;;;;5015858;28;20557;-25
2022/08/01 05:38:34;;;;;;;10.93;7.13;;;22.80;99.20;;;;;;5017027;28;20212;-25
2022/08/01 05:41:04;;;;;;;9.48;7.43;;;22.80;99.20;;;;;;5005230;28;20623;-25
2022/08/01 05:43:31;;;;;;;9.15;7.22;;;22.80;99.30;;;;;;5009882;28;20731;-25
2022/08/01 05:46:01;;;;;;;8.45;6.90;;;22.80;99.30;;;;;;5011408;28;20244;-35
2022/08/01 05:48:30;;;;;;;9.88;7.07;;;22.80;99.30;;;;;;5011750;28;20209;-34
2022/08/01 05:50:58;;;;;;;9.95;7.55;;;22.80;99.50;;;;;;5006345;28;20246;-33
2022/08/01 05:53:25;;;;;;;8.90;6.53;;;22.90;99.60;;;;;;5012953;28;20200;-34
2022/08/01 05:55:52;;;;;;;8.45;6.47;;;22.80;99.50;;;;;;5016471;28;20212;-34
2022/08/01 05:58:20;;;;;;;8.77;6.53;;;22.80;99.50;;;;;;5019556;28;20237;-34
2022/08/01 06:00:47;;;;;;;8.68;6.65;;;22.90;99.50;;;;;;5017563;28;20267;-34
2022/08/01 06:03:14;;;;;;;8.90;6.55;;;22.90;99.60;;;;;;5020549;28;20699;-34
2022/08/01 06:05:44;;;;;;;7.90;5.53;;;22.90;99.60;;;;;;5020848;28;20723;-34
2022/08/01 06:08:11;;;;;;;7.70;5.80;;;22.90;99.60;;;;;;5021389;28;20622;-34
2022/08/01 06:10:41;;;;;;;9.18;6.43;;;22.90;99.60;;;;;;5017316;28;20690;-34
2022/08/01 06:13:08;;;;;;;7.25;4.80;;;22.90;99.70;;;;;;5009110;28;20212;-34
2022/08/01 06:15:40;;;;;;;6.45;5.55;;;22.90;99.60;;;;;;5015654;28;20205;-25
2022/08/01 06:18:07;;;;;;;8.23;5.90;;;22.90;99.60;;;;;;5028619;28;20236;-34
2022/08/01 06:20:34;;;;;;;8.82;5.68;;;22.90;99.80;;;;;;5016493;28;20304;-33
2022/08/01 06:23:02;;;;;;;8.80;5.60;;;22.90;99.70;;;;;;5016010;28;20213;-34
2022/08/01 06:25:53;;;;;;;8.05;5.95;;;22.90;99.70;;;;;;5015161;28;20220;-34
2022/08/01 06:28:23;;;;;;;7.28;5.40;;;22.90;99.80;;;;;;5009248;28;20205;-34
2022/08/01 06:30:53;;;;;;;8.05;5.28;;;22.90;99.80;;;;;;5006842;28;20252;-34
2022/08/01 06:33:20;;;;;;;6.57;5.10;;;23.00;99.90;;;;;;5012295;28;20201;-34
2022/08/01 06:35:47;;;;;;;8.50;5.22;;;23.00;99.80;;;;;;5021578;28;20209;-34
2022/08/01 06:38:17;;;;;;;5.30;4.10;;;23.10;99.90;;;;;;5023158;28;20781;-34
2022/08/01 06:40:44;;;;;;;6.53;4.30;;;23.10;99.80;;;;;;5021475;28;20244;-25
2022/08/01 06:43:12;;;;;;;8.55;5.18;;;23.10;99.90;;;;;;5020556;28;20515;-25
2022/08/01 06:45:40;;;;;;;6.00;3.97;;;23.20;99.90;;;;;;5017213;28;20743;-25
2022/08/01 06:48:07;;;;;;;5.70;4.00;;;23.20;99.90;;;;;;5013667;28;20365;-25
2022/08/01 06:50:40;;;;;;;8.40;3.85;;;23.20;99.90;;;;;;5020034;28;20280;-25
2022/08/01 06:53:10;;;;;;;6.07;4.05;;;23.30;99.90;;;;;;5021516;28;20204;-26
2022/08/01 06:55:39;;;;;;;5.80;3.85;;;23.30;99.90;;;;;;5009876;28;20213;-26
2022/08/01 06:58:07;;;;;;;5.78;3.88;;;23.40;99.90;;;;;;5007967;28;20279;-32
2022/08/01 07:00:34;;;;;;;4.78;4.05;;;23.50;99.90;;;;;;5013491;28;20571;-25
2022/08/01 07:03:05;;;;;;;4.93;3.88;;;23.50;99.90;;;;;;5020003;28;20263;-25
2022/08/01 07:05:33;;;;;;;4.65;3.95;;;23.50;99.90;;;;;;5024026;28;20643;-25
2022/08/01 07:08:00;;;;;;;4.70;3.58;;;23.60;99.90;;;;;;5024592;28;20205;-25
2022/08/01 07:10:27;;;;;;;5.53;3.88;;;23.60;99.90;;;;;;5016897;28;20835;-34
2022/08/01 07:12:54;;;;;;;5.13;3.30;;;23.50;99.90;;;;;;5026445;28;20201;-34
2022/08/01 07:15:26;;;;;;;5.80;3.75;;;23.50;99.90;;;;;;5022590;28;20264;-33
2022/08/01 07:17:56;;;;;;;4.22;3.75;;;23.50;99.90;;;;;;5008932;28;20303;-34
2022/08/01 07:20:26;;;;;;;4.22;3.70;;;23.60;99.90;;;;;;5013341;28;20212;-34
2022/08/01 07:22:53;;;;;;;4.50;3.60;;;23.60;99.90;;;;;;5010743;28;20637;-34
2022/08/01 07:25:23;;;;;;;4.03;3.55;;;23.70;99.90;;;;;;5016651;28;20268;-36
2022/08/01 07:27:50;;;;;;;5.05;4.00;;;23.70;99.90;;;;;;5012883;28;20734;-34
2022/08/01 07:30:19;;;;;;;7.18;3.55;;;23.70;99.90;;;;;;5021418;28;20208;-34
2022/08/01 07:32:47;;;;;;;6.40;3.83;;;23.80;99.90;;;;;;5021105;28;20664;-34
2022/08/01 07:35:14;;;;;;;5.30;4.25;;;23.90;99.90;;;;;;5008044;28;20198;-34
2022/08/01 07:37:41;;;;;;;5.35;4.45;;;23.90;99.90;;;;;;5014467;28;20261;-34
2022/08/01 07:40:18;;;;;;;8.20;4.47;;;23.90;99.90;;;;;;5024438;28;20217;-34
2022/08/01 07:42:51;;;;;;;4.40;4.10;;;24.00;99.90;;;;;;5023837;28;20258;-33
2022/08/01 07:45:18;;;;;;;5.55;3.50;;;24.00;99.90;;;;;;5027488;28;20755;-34
2022/08/01 07:47:50;;;;;;;3.90;3.60;;;24.00;99.90;;;;;;5023437;28;20201;-25
2022/08/01 07:50:17;;;;;;;6.45;4.25;;;24.00;99.90;;;;;;5029507;28;20209;-25
2022/08/01 07:52:45;;;;;;;5.45;3.88;;;24.00;99.90;;;;;;5017314;28;20204;-25
2022/08/01 07:55:13;;;;;;;4.13;3.72;;;24.10;99.90;;;;;;5039272;28;20208;-25
2022/08/01 07:57:44;;;;;;;5.47;4.15;;;24.10;99.90;;;;;;5024594;28;20671;-25
2022/08/01 08:00:13;;;;;;;4.00;3.60;;;24.10;99.90;;;;;;5023606;28;20685;-25
2022/08/01 08:02:43;;;;;;;5.45;3.90;;;24.20;99.90;;;;;;5015897;28;20213;-25
2022/08/01 08:05:13;;;;;;;5.60;3.50;;;24.20;99.90;;;;;;5027500;28;20250;-25
2022/08/01 08:07:40;;;;;;;3.47;3.17;;;24.30;99.90;;;;;;5026581;28;20213;-30
2022/08/01 08:10:10;;;;;;;3.90;2.83;;;24.30;99.90;;;;;;5018175;28;20205;-25
2022/08/01 08:12:38;;;;;;;3.08;2.70;;;24.30;99.90;;;;;;5020719;28;20205;-25
2022/08/01 08:15:06;;;;;;;3.28;2.90;;;24.30;99.90;;;;;;5029042;28;20726;-25
2022/08/01 08:17:35;;;;;;;4.63;3.53;;;24.40;99.90;;;;;;5025115;28;20217;-25
2022/08/01 08:20:08;;;;;;;4.78;3.50;;;24.40;99.90;;;;;;5021060;28;20590;-25
2022/08/01 08:22:36;;;;;;;4.00;3.40;;;24.50;99.90;;;;;;5022747;28;20200;-25
2022/08/01 08:25:04;;;;;;;4.10;3.65;;;24.50;99.90;;;;;;5025346;28;20214;-25
2022/08/01 08:27:34;;;;;;;7.35;4.05;;;24.60;99.90;;;;;;5011207;28;20249;-25
2022/08/01 08:30:07;;;;;;;3.50;3.20;;;24.70;99.90;;;;;;5013500;28;20303;-25
2022/08/01 08:32:35;;;;;;;3.75;3.20;;;24.80;99.90;;;;;;5012489;28;20200;-26
2022/08/01 08:35:06;;;;;;;3.72;3.42;;;24.90;99.90;;;;;;5018118;28;20535;-25
2022/08/01 08:37:38;;;;;;;3.95;3.40;;;24.90;99.90;;;;;;5029686;28;20216;-26
2022/08/01 08:40:21;;;;;;;3.63;3.30;;;25.00;99.90;;;;;;5025471;28;20243;-25
2022/08/01 08:42:48;;;;;;;3.70;3.17;;;25.10;99.90;;;;;;5021543;28;20296;-25
2022/08/01 08:45:15;;;;;;;3.42;3.22;;;25.10;99.90;;;;;;5029247;28;20213;-25
2022/08/01 08:47:48;;;;;;;3.10;2.90;;;25.10;99.90;;;;;;5029014;28;20224;-25
2022/08/01 08:50:16;;;;;;;3.65;3.35;;;25.10;99.80;;;;;;5025354;28;20577;-25
2022/08/01 08:52:44;;;;;;;2.72;2.50;;;25.10;99.90;;;;;;5020134;28;20610;-25
2022/08/01 08:55:14;;;;;;;2.97;2.45;;;25.20;99.90;;;;;;5014115;28;20217;-25
2022/08/01 08:57:45;;;;;;;2.30;2.20;;;25.10;99.60;;;;;;5020110;28;20213;-25
2022/08/01 09:00:14;;;;;;;2.70;2.50;;;25.20;99.70;;;;;;5012431;28;20249;-25
2022/08/01 09:02:43;;;;;;;2.83;2.63;;;25.20;99.60;;;;;;5014731;28;21042;-25
2022/08/01 09:05:12;;;;;;;3.78;2.08;;;25.30;99.70;;;;;;5012660;28;20212;-25
2022/08/01 09:07:45;;;;;;;2.67;2.45;;;25.30;99.60;;;;;;5015227;28;20216;-25
2022/08/01 09:10:12;;;;;;;2.60;2.40;;;25.30;99.40;;;;;;5012909;28;20308;-25
2022/08/01 09:13:03;;;;;;;2.60;2.40;;;25.30;99.40;;;;;;5010019;28;20204;-25
2022/08/01 09:15:43;;;;;;;2.67;2.40;;;25.30;99.30;;;;;;5013209;28;20216;-25
2022/08/01 09:18:33;;;;;;;2.85;2.55;;;25.40;99.40;;;;;;5016047;28;20225;-25
2022/08/01 09:21:14;;;;;;;2.97;2.78;;;25.40;99.30;;;;;;5035345;28;20205;-25
2022/08/01 09:23:48;;;;;;;4.78;2.90;;;25.50;99.40;;;;;;5019405;28;20188;-25
2022/08/01 09:26:28;;;;;;;3.05;2.70;;;25.50;99.40;;;;;;5040829;28;20227;-33
2022/08/01 09:28:57;;;;;;;4.28;3.53;;;25.50;99.30;;;;;;5021790;28;20284;-34
2022/08/01 09:31:27;;;;;;;4.10;3.80;;;25.60;99.20;;;;;;5013021;28;20211;-34
2022/08/01 09:34:08;;;;;;;4.07;3.67;;;25.50;99.20;;;;;;5008095;28;20209;-34
2022/08/01 09:36:55;;;;;;;4.45;4.05;;;25.60;99.30;;;;;;5014678;28;20221;-34
2022/08/01 09:39:28;;;;;;;4.03;3.72;;;25.70;99.20;;;;;;5012408;28;20652;-34
2022/08/01 09:41:57;;;;;;;3.63;3.30;;;25.60;99.10;;;;;;5021702;28;20624;-26
2022/08/01 09:44:42;;;;;;;4.28;3.88;;;25.70;99.20;;;;;;5022957;28;20220;-34
2022/08/01 09:47:20;;;;;;;3.88;3.47;;;25.70;98.90;;;;;;5013043;28;20245;-34
2022/08/01 09:49:55;;;;;;;3.40;3.10;;;25.60;98.80;;;;;;5028504;28;20660;-26
2022/08/01 09:52:27;;;;;;;4.13;2.90;;;25.70;98.90;;;;;;5009888;28;20201;-25
2022/08/01 09:55:05;;;;;;;2.70;2.50;;;25.70;98.90;;;;;;5012709;28;20676;-25
2022/08/01 09:57:32;;;;;;;2.50;2.28;;;25.70;98.90;;;;;;5023912;28;20295;-25
2022/08/01 10:00:04;;;;;;;2.40;2.20;;;25.70;99.00;;;;;;5022067;28;20330;-25
2022/08/01 10:02:33;;;;;;;2.28;2.00;;;25.80;99.00;;;;;;5028808;28;20286;-25
2022/08/01 10:05:03;;;;;;;5.25;2.17;;;25.80;98.80;;;;;;5014571;28;20205;-26
2022/08/01 10:07:54;;;;;;;2.60;2.22;;;25.80;98.70;;;;;;5016554;28;20225;-35
2022/08/01 10:10:24;;;;;;;4.60;2.10;;;25.70;98.70;;;;;;5016846;28;20217;-32
2022/08/01 10:13:00;;;;;;;2.08;1.88;;;25.80;98.50;;;;;;5027936;28;20201;-33
2022/08/01 10:15:32;;;;;;;2.13;1.80;;;25.70;98.30;;;;;;5014798;28;20217;-34
2022/08/01 10:18:08;;;;;;;2.30;2.20;;;25.70;98.30;;;;;;5013543;28;20604;-34
2022/08/01 10:20:51;;;;;;;2.92;2.13;;;25.70;98.30;;;;;;5020925;28;20205;-35
2022/08/01 10:23:26;;;;;;;2.53;2.00;;;25.70;98.30;;;;;;5009217;28;20197;-33
2022/08/01 10:26:12;;;;;;;1.88;1.77;;;25.70;98.30;;;;;;5015755;28;20221;-34
2022/08/01 10:28:40;;;;;;;2.58;2.38;;;25.70;98.50;;;;;;5021133;28;20213;-34
2022/08/01 10:31:11;;;;;;;2.10;2.00;;;25.80;98.50;;;;;;5011317;28;20201;-33
2022/08/01 10:33:41;;;;;;;2.58;2.38;;;25.80;98.40;;;;;;5009726;28;20201;-34
2022/08/01 10:36:23;;;;;;;2.20;2.00;;;25.90;98.40;;;;;;5018257;28;20572;-34
2022/08/01 10:38:54;;;;;;;2.47;2.28;;;26.00;98.50;;;;;;5040240;28;20220;-34
2022/08/01 10:41:22;;;;;;;2.05;1.95;;;26.00;98.50;;;;;;5017574;28;20292;-34
2022/08/01 10:43:54;;;;;;;2.30;2.10;;;26.10;98.70;;;;;;5009656;28;20213;-34
2022/08/01 10:46:21;;;;;;;3.40;2.40;;;26.10;98.40;;;;;;4992731;28;20225;-33
2022/08/01 10:48:55;;;;;;;2.67;2.47;;;26.20;98.30;;;;;;5017670;28;20260;-34
2022/08/01 10:51:23;;;;;;;2.33;2.13;;;26.30;98.40;;;;;;5017919;28;20577;-34
2022/08/01 10:54:15;;;;;;;2.60;2.40;;;26.30;98.30;;;;;;5014455;28;20351;-34
2022/08/01 10:56:46;;;;;;;4.15;2.60;;;26.30;98.20;;;;;;5015061;28;20223;-34
2022/08/01 10:59:25;;;;;;;3.00;2.17;;;26.40;98.00;;;;;;5014006;28;20708;-34
2022/08/01 11:02:33;;;;;;;3.15;2.40;;;26.40;98.00;;;;;;5020111;28;20758;-34
2022/08/01 11:05:06;;;;;;;2.50;2.30;;;26.40;97.90;;;;;;5010068;28;20220;-34
2022/08/01 11:07:42;;;;;;;3.42;2.15;;;26.40;98.00;;;;;;5015684;28;20224;-35
2022/08/01 11:10:24;;;;;;;4.68;2.50;;;26.50;97.90;;;;;;5023892;28;20204;-35
2022/08/01 11:12:52;;;;;;;2.25;2.05;;;26.50;97.20;;;;;;5027201;28;20197;-34
2022/08/01 11:15:24;;;;;;;2.47;2.20;;;26.50;97.60;;;;;;5016062;28;20627;-34
2022/08/01 11:18:00;;;;;;;2.67;2.20;;;26.50;97.70;;;;;;5010173;28;20200;-34
2022/08/01 11:20:33;;;;;;;2.13;2.03;;;26.50;97.20;;;;;;5027350;28;20307;-34
2022/08/01 11:23:05;;;;;;;2.10;2.00;;;26.60;97.30;;;;;;5019042;28;20356;-25
2022/08/01 11:25:36;;;;;;;1.80;1.70;;;26.60;97.30;;;;;;5016224;28;20336;-25
2022/08/01 11:28:25;;;;;;;2.90;2.15;;;26.60;97.40;;;;;;5017566;28;20408;-25
2022/08/01 11:31:07;;;;;;;2.10;2.00;;;26.70;97.60;;;;;;5014053;28;20221;-25
2022/08/01 11:33:44;;;;;;;2.40;2.20;;;26.70;97.60;;;;;;5026102;28;20200;-25
2022/08/01 11:36:13;;;;;;;2.50;2.30;;;26.80;97.60;;;;;;5018859;28;20205;-25
2022/08/01 11:38:46;;;;;;;2.08;1.98;;;26.80;97.60;;;;;;5020730;28;20216;-25
2022/08/01 11:41:16;;;;;;;3.03;2.20;;;26.90;97.60;;;;;;5017634;28;20596;-25
2022/08/01 11:43:59;;;;;;;1.90;1.80;;;26.90;97.30;;;;;;5017264;28;20193;-25
2022/08/01 11:46:50;;;;;;;1.70;1.60;;;27.00;97.20;;;;;;5028791;28;20228;-25
2022/08/01 11:49:32;;;;;;;2.10;1.75;;;27.00;97.00;;;;;;5020555;28;21075;-25
2022/08/01 11:52:10;;;;;;;2.10;1.90;;;27.10;96.80;;;;;;5028330;28;20231;-25
2022/08/01 11:54:43;;;;;;;1.90;1.75;;;27.10;96.70;;;;;;5016665;28;20220;-25
2022/08/01 11:57:13;;;;;;;2.25;1.60;;;27.10;96.70;;;;;;5019909;28;20304;-25
2022/08/01 11:59:48;;;;;;;2.42;1.55;;;27.10;96.60;;;;;;5021411;28;20322;-25
2022/08/01 12:02:35;;;;;;;2.60;1.42;;;27.10;96.70;;;;;;5015301;28;20205;-25
2022/08/01 12:05:11;;;;;;;1.27;1.17;;;27.20;97.20;;;;;;5017204;28;20197;-25
2022/08/01 12:07:42;;;;;;;3.33;1.40;;;27.20;96.80;;;;;;5017888;28;20604;-27
2022/08/01 12:10:13;;;;;;;1.13;1.02;;;27.30;96.80;;;;;;5023272;28;20292;-25
2022/08/01 12:12:51;;;;;;;1.58;1.20;;;27.30;96.60;;;;;;5015924;28;20296;-25
2022/08/01 12:15:24;;;;;;;1.60;1.10;;;27.30;96.30;;;;;;5018450;28;20215;-24
2022/08/01 12:18:07;;;;;;;2.10;1.08;;;27.30;96.70;;;;;;5003635;28;20666;-24
2022/08/01 12:20:37;;;;;;;3.20;0.95;;;27.40;96.60;;;;;;5026868;28;20683;-24
2022/08/01 12:23:18;;;;;;;1.02;0.90;;;27.40;96.40;;;;;;5016759;28;20304;-25
2022/08/01 12:25:51;;;;;;;2.70;0.80;;;27.40;96.40;;;;;;5022878;28;20648;-24
2022/08/01 12:28:21;;;;;;;1.52;0.75;;;27.40;95.70;;;;;;5021968;28;20217;-24
2022/08/01 12:30:50;;;;;;;2.80;0.98;;;27.30;95.50;;;;;;5021095;28;20613;-33
2022/08/01 12:33:19;;;;;;;1.77;0.82;;;27.30;95.40;;;;;;5017184;28;20304;-33
2022/08/01 12:35:48;;;;;;;2.45;0.73;;;27.30;95.50;;;;;;5014793;28;20200;-33
2022/08/01 12:38:24;;;;;;;1.85;0.70;;;27.30;95.80;;;;;;5023660;28;20205;-33
2022/08/01 12:40:52;;;;;;;1.23;0.68;;;27.40;95.80;;;;;;5017490;28;20235;-33
2022/08/01 12:43:24;;;;;;;1.05;0.80;;;27.30;95.70;;;;;;5015867;28;20237;-33
2022/08/01 12:45:58;;;;;;;1.80;0.68;;;27.40;95.60;;;;;;5024775;28;20210;-33
2022/08/01 12:48:26;;;;;;;1.30;0.95;;;27.40;95.50;;;;;;5015397;28;20228;-34
2022/08/01 12:50:57;;;;;;;4.07;0.80;;;27.50;95.70;;;;;;5020756;28;20259;-33
2022/08/01 12:53:25;;;;;;;1.65;0.77;;;27.50;95.50;;;;;;5014265;28;20280;-33
2022/08/01 12:56:09;;;;;;;1.35;1.10;;;27.50;95.50;;;;;;5013611;28;20618;-34
2022/08/01 12:58:40;;;;;;;2.65;1.08;;;27.50;94.90;;;;;;5021530;28;20237;-33
2022/08/01 13:01:10;;;;;;;3.45;1.00;;;27.50;95.40;;;;;;5010489;28;20209;-33
2022/08/01 13:03:41;;;;;;;1.38;0.77;;;27.50;94.80;;;;;;5016134;28;20207;-33
2022/08/01 13:06:14;;;;;;;3.50;0.82;;;27.40;94.20;;;;;;5030154;28;20271;-33
2022/08/01 13:08:43;;;;;;;2.13;0.85;;;27.40;94.60;;;;;;5012234;28;20251;-33
2022/08/01 13:11:15;;;;;;;2.28;0.93;;;27.40;94.50;;;;;;5017363;28;20672;-31